sensor_id;sensor_type;location;lat;lon;timestamp;temperature;humidity
530;DHT22;251;48.704;9.210;2023-07-13T00:01:05;20.30;14.80
530;DHT22;251;48.704;9.210;2023-07-13T00:03:32;20.30;14.80
530;DHT22;251;48.704;9.210;2023-07-13T00:06:01;20.20;14.30
530;DHT22;251;48.704;9.210;2023-07-13T00:08:30;20.10;14.50
530;DHT22;251;48.704;9.210;2023-07-13T00:10:59;20.10;15.30
530;DHT22;251;48.704;9.210;2023-07-13T00:13:26;20.10;14.90
530;DHT22;251;48.704;9.210;2023-07-13T00:15:53;20.10;16.10
530;DHT22;251;48.704;9.210;2023-07-13T00:18:21;20.00;15.30
530;DHT22;251;48.704;9.210;2023-07-13T00:20:48;19.90;16.60
530;DHT22;251;48.704;9.210;2023-07-13T00:23:15;19.90;15.10
530;DHT22;251;48.704;9.210;2023-07-13T00:25:42;19.90;16.60
530;DHT22;251;48.704;9.210;2023-07-13T00:28:10;19.80;17.70
530;DHT22;251;48.704;9.210;2023-07-13T00:30:37;19.60;16.50
530;DHT22;251;48.704;9.210;2023-07-13T00:33:04;19.50;17.10
530;DHT22;251;48.704;9.210;2023-07-13T00:35:31;19.50;18.60
530;DHT22;251;48.704;9.210;2023-07-13T00:37:58;19.30;18.40
530;DHT22;251;48.704;9.210;2023-07-13T00:40:25;19.20;20.10
530;DHT22;251;48.704;9.210;2023-07-13T00:42:52;19.10;20.40
530;DHT22;251;48.704;9.210;2023-07-13T00:48:27;18.90;22.00
530;DHT22;251;48.704;9.210;2023-07-13T00:50:56;18.80;21.50
530;DHT22;251;48.704;9.210;2023-07-13T00:53:26;18.70;21.40
530;DHT22;251;48.704;9.210;2023-07-13T00:55:55;18.70;22.50
530;DHT22;251;48.704;9.210;2023-07-13T00:58:23;18.60;23.90
530;DHT22;251;48.704;9.210;2023-07-13T01:00:51;18.50;25.00
530;DHT22;251;48.704;9.210;2023-07-13T01:03:18;18.40;25.70
530;DHT22;251;48.704;9.210;2023-07-13T01:05:48;18.50;23.80
530;DHT22;251;48.704;9.210;2023-07-13T01:08:16;18.40;25.60
530;DHT22;251;48.704;9.210;2023-07-13T01:10:51;18.30;27.90
530;DHT22;251;48.704;9.210;2023-07-13T01:13:18;18.30;26.20
530;DHT22;251;48.704;9.210;2023-07-13T01:15:47;18.20;25.90
530;DHT22;251;48.704;9.210;2023-07-13T01:18:15;18.00;25.80
530;DHT22;251;48.704;9.210;2023-07-13T01:20:51;18.00;27.00
530;DHT22;251;48.704;9.210;2023-07-13T01:23:18;18.00;27.20
530;DHT22;251;48.704;9.210;2023-07-13T01:25:45;18.00;29.20
530;DHT22;251;48.704;9.210;2023-07-13T01:28:12;17.90;27.30
530;DHT22;251;48.704;9.210;2023-07-13T01:30:39;17.80;28.30
530;DHT22;251;48.704;9.210;2023-07-13T01:33:06;17.80;29.70
530;DHT22;251;48.704;9.210;2023-07-13T01:35:35;17.60;31.30
530;DHT22;251;48.704;9.210;2023-07-13T01:38:04;17.60;28.30
530;DHT22;251;48.704;9.210;2023-07-13T01:40:32;17.60;31.20
530;DHT22;251;48.704;9.210;2023-07-13T01:42:59;17.50;31.90
530;DHT22;251;48.704;9.210;2023-07-13T01:45:25;17.40;29.20
530;DHT22;251;48.704;9.210;2023-07-13T01:47:52;17.40;30.00
530;DHT22;251;48.704;9.210;2023-07-13T01:50:19;17.30;30.80
530;DHT22;251;48.704;9.210;2023-07-13T01:52:46;17.20;33.30
530;DHT22;251;48.704;9.210;2023-07-13T01:55:15;17.20;35.70
530;DHT22;251;48.704;9.210;2023-07-13T01:57:41;17.20;35.30
530;DHT22;251;48.704;9.210;2023-07-13T02:00:10;17.00;35.70
530;DHT22;251;48.704;9.210;2023-07-13T02:02:46;16.90;37.30
530;DHT22;251;48.704;9.210;2023-07-13T02:05:14;16.80;35.30
530;DHT22;251;48.704;9.210;2023-07-13T02:07:41;16.70;36.90
530;DHT22;251;48.704;9.210;2023-07-13T02:10:09;16.70;35.70
530;DHT22;251;48.704;9.210;2023-07-13T02:12:41;16.60;37.50
530;DHT22;251;48.704;9.210;2023-07-13T02:15:09;16.60;38.40
530;DHT22;251;48.704;9.210;2023-07-13T02:17:36;16.50;38.20
530;DHT22;251;48.704;9.210;2023-07-13T02:20:04;16.40;39.60
530;DHT22;251;48.704;9.210;2023-07-13T02:22:31;16.30;43.20
530;DHT22;251;48.704;9.210;2023-07-13T02:24:58;16.20;42.60
530;DHT22;251;48.704;9.210;2023-07-13T02:27:25;16.10;43.20
530;DHT22;251;48.704;9.210;2023-07-13T02:29:53;16.00;44.80
530;DHT22;251;48.704;9.210;2023-07-13T02:32:21;16.00;45.20
530;DHT22;251;48.704;9.210;2023-07-13T02:34:51;15.90;45.50
530;DHT22;251;48.704;9.210;2023-07-13T02:37:18;15.80;46.20
530;DHT22;251;48.704;9.210;2023-07-13T02:39:45;15.70;46.20
530;DHT22;251;48.704;9.210;2023-07-13T02:42:13;15.60;46.80
530;DHT22;251;48.704;9.210;2023-07-13T02:44:40;15.50;49.30
530;DHT22;251;48.704;9.210;2023-07-13T02:47:08;15.40;50.70
530;DHT22;251;48.704;9.210;2023-07-13T02:49:35;15.40;51.10
530;DHT22;251;48.704;9.210;2023-07-13T02:52:03;15.40;52.30
530;DHT22;251;48.704;9.210;2023-07-13T02:54:30;15.40;51.10
530;DHT22;251;48.704;9.210;2023-07-13T02:56:57;15.40;52.40
530;DHT22;251;48.704;9.210;2023-07-13T02:59:23;15.30;51.50
530;DHT22;251;48.704;9.210;2023-07-13T03:01:51;15.30;51.30
530;DHT22;251;48.704;9.210;2023-07-13T03:04:19;15.30;53.70
530;DHT22;251;48.704;9.210;2023-07-13T03:06:46;15.30;53.80
530;DHT22;251;48.704;9.210;2023-07-13T03:09:13;15.10;55.60
530;DHT22;251;48.704;9.210;2023-07-13T03:11:44;15.10;56.30
530;DHT22;251;48.704;9.210;2023-07-13T03:14:21;15.00;55.90
530;DHT22;251;48.704;9.210;2023-07-13T03:16:48;15.00;56.00
530;DHT22;251;48.704;9.210;2023-07-13T03:19:15;15.00;57.70
530;DHT22;251;48.704;9.210;2023-07-13T03:21:48;15.00;57.70
530;DHT22;251;48.704;9.210;2023-07-13T03:24:14;15.00;58.10
530;DHT22;251;48.704;9.210;2023-07-13T03:26:42;14.90;58.40
530;DHT22;251;48.704;9.210;2023-07-13T03:29:09;14.90;57.70
530;DHT22;251;48.704;9.210;2023-07-13T03:31:37;15.00;62.90
530;DHT22;251;48.704;9.210;2023-07-13T03:34:04;15.00;62.10
530;DHT22;251;48.704;9.210;2023-07-13T03:36:31;15.10;60.00
530;DHT22;251;48.704;9.210;2023-07-13T03:39:04;15.10;61.20
530;DHT22;251;48.704;9.210;2023-07-13T03:41:44;15.10;60.50
530;DHT22;251;48.704;9.210;2023-07-13T03:44:12;15.10;57.00
530;DHT22;251;48.704;9.210;2023-07-13T03:46:39;15.20;60.80
530;DHT22;251;48.704;9.210;2023-07-13T03:49:06;15.20;60.10
530;DHT22;251;48.704;9.210;2023-07-13T03:51:33;15.20;56.50
530;DHT22;251;48.704;9.210;2023-07-13T03:54:00;15.30;59.60
530;DHT22;251;48.704;9.210;2023-07-13T03:56:29;15.40;58.00
530;DHT22;251;48.704;9.210;2023-07-13T03:58:58;15.40;62.20
530;DHT22;251;48.704;9.210;2023-07-13T04:01:25;15.50;62.30
530;DHT22;251;48.704;9.210;2023-07-13T04:03:52;15.50;58.00
530;DHT22;251;48.704;9.210;2023-07-13T04:06:23;15.60;58.90
530;DHT22;251;48.704;9.210;2023-07-13T04:08:52;15.70;61.20
530;DHT22;251;48.704;9.210;2023-07-13T04:11:20;15.70;59.50
530;DHT22;251;48.704;9.210;2023-07-13T04:13:49;15.70;56.60
530;DHT22;251;48.704;9.210;2023-07-13T04:16:17;15.80;56.60
530;DHT22;251;48.704;9.210;2023-07-13T04:18:45;15.80;56.50
530;DHT22;251;48.704;9.210;2023-07-13T04:21:12;15.80;54.60
530;DHT22;251;48.704;9.210;2023-07-13T04:23:40;15.90;56.80
530;DHT22;251;48.704;9.210;2023-07-13T04:26:07;15.90;58.00
530;DHT22;251;48.704;9.210;2023-07-13T04:28:34;15.90;60.70
530;DHT22;251;48.704;9.210;2023-07-13T04:31:02;15.90;57.90
530;DHT22;251;48.704;9.210;2023-07-13T04:33:29;16.00;55.70
530;DHT22;251;48.704;9.210;2023-07-13T04:35:56;16.00;55.10
530;DHT22;251;48.704;9.210;2023-07-13T04:38:26;16.10;60.90
530;DHT22;251;48.704;9.210;2023-07-13T04:40:55;16.10;60.40
530;DHT22;251;48.704;9.210;2023-07-13T04:43:22;16.10;60.30
530;DHT22;251;48.704;9.210;2023-07-13T04:45:50;16.10;58.90
530;DHT22;251;48.704;9.210;2023-07-13T04:48:19;16.20;58.50
530;DHT22;251;48.704;9.210;2023-07-13T04:50:47;16.20;58.60
530;DHT22;251;48.704;9.210;2023-07-13T04:53:14;16.20;60.50
530;DHT22;251;48.704;9.210;2023-07-13T04:55:41;16.30;62.90
530;DHT22;251;48.704;9.210;2023-07-13T04:58:07;16.30;60.90
530;DHT22;251;48.704;9.210;2023-07-13T05:00:41;16.40;61.10
530;DHT22;251;48.704;9.210;2023-07-13T05:03:08;16.40;61.40
530;DHT22;251;48.704;9.210;2023-07-13T05:05:36;16.50;59.30
530;DHT22;251;48.704;9.210;2023-07-13T05:08:03;16.60;56.20
530;DHT22;251;48.704;9.210;2023-07-13T05:10:30;16.60;58.90
530;DHT22;251;48.704;9.210;2023-07-13T05:12:57;16.60;59.50
530;DHT22;251;48.704;9.210;2023-07-13T05:15:24;16.70;56.60
530;DHT22;251;48.704;9.210;2023-07-13T05:17:51;16.80;58.40
530;DHT22;251;48.704;9.210;2023-07-13T05:20:19;16.80;56.90
530;DHT22;251;48.704;9.210;2023-07-13T05:22:47;16.90;54.40
530;DHT22;251;48.704;9.210;2023-07-13T05:25:14;17.00;57.80
530;DHT22;251;48.704;9.210;2023-07-13T05:27:41;17.10;58.00
530;DHT22;251;48.704;9.210;2023-07-13T05:30:08;17.20;60.20
530;DHT22;251;48.704;9.210;2023-07-13T05:32:37;17.30;59.70
530;DHT22;251;48.704;9.210;2023-07-13T05:35:05;17.30;57.40
530;DHT22;251;48.704;9.210;2023-07-13T05:37:31;17.50;51.00
530;DHT22;251;48.704;9.210;2023-07-13T05:40:00;17.60;51.70
530;DHT22;251;48.704;9.210;2023-07-13T05:42:27;17.70;52.00
530;DHT22;251;48.704;9.210;2023-07-13T05:44:53;17.80;45.20
530;DHT22;251;48.704;9.210;2023-07-13T05:47:21;17.80;45.70
530;DHT22;251;48.704;9.210;2023-07-13T05:49:47;17.90;47.80
530;DHT22;251;48.704;9.210;2023-07-13T05:52:14;18.00;44.00
530;DHT22;251;48.704;9.210;2023-07-13T05:54:41;18.00;31.50
530;DHT22;251;48.704;9.210;2023-07-13T05:57:09;18.10;38.60
530;DHT22;251;48.704;9.210;2023-07-13T05:59:36;18.20;41.30
530;DHT22;251;48.704;9.210;2023-07-13T06:02:03;18.20;35.10
530;DHT22;251;48.704;9.210;2023-07-13T06:04:30;18.20;34.50
530;DHT22;251;48.704;9.210;2023-07-13T06:06:57;18.20;37.90
530;DHT22;251;48.704;9.210;2023-07-13T06:09:23;18.30;33.00
530;DHT22;251;48.704;9.210;2023-07-13T06:11:50;18.30;32.00
530;DHT22;251;48.704;9.210;2023-07-13T06:14:18;18.40;30.80
530;DHT22;251;48.704;9.210;2023-07-13T06:16:45;18.50;29.90
530;DHT22;251;48.704;9.210;2023-07-13T06:19:12;18.50;23.50
530;DHT22;251;48.704;9.210;2023-07-13T06:21:39;18.60;22.30
530;DHT22;251;48.704;9.210;2023-07-13T06:24:06;18.70;20.00
530;DHT22;251;48.704;9.210;2023-07-13T06:26:32;18.80;21.00
530;DHT22;251;48.704;9.210;2023-07-13T06:28:59;18.90;17.20
530;DHT22;251;48.704;9.210;2023-07-13T06:31:27;19.00;17.60
530;DHT22;251;48.704;9.210;2023-07-13T06:33:54;19.10;17.10
530;DHT22;251;48.704;9.210;2023-07-13T06:36:21;19.20;17.30
530;DHT22;251;48.704;9.210;2023-07-13T06:38:47;19.20;17.10
530;DHT22;251;48.704;9.210;2023-07-13T06:41:14;19.30;16.60
530;DHT22;251;48.704;9.210;2023-07-13T06:43:41;19.40;16.10
530;DHT22;251;48.704;9.210;2023-07-13T06:46:07;19.50;14.30
530;DHT22;251;48.704;9.210;2023-07-13T06:48:36;19.60;12.60
530;DHT22;251;48.704;9.210;2023-07-13T06:51:03;19.60;12.60
530;DHT22;251;48.704;9.210;2023-07-13T06:53:30;19.70;12.60
530;DHT22;251;48.704;9.210;2023-07-13T06:55:56;19.80;14.50
530;DHT22;251;48.704;9.210;2023-07-13T06:58:23;19.80;11.60
530;DHT22;251;48.704;9.210;2023-07-13T07:00:51;19.90;9.90
530;DHT22;251;48.704;9.210;2023-07-13T07:03:18;19.90;11.50
530;DHT22;251;48.704;9.210;2023-07-13T07:05:46;20.00;10.40
530;DHT22;251;48.704;9.210;2023-07-13T07:08:13;20.00;10.40
530;DHT22;251;48.704;9.210;2023-07-13T07:10:40;20.10;12.20
530;DHT22;251;48.704;9.210;2023-07-13T07:13:07;20.10;10.50
530;DHT22;251;48.704;9.210;2023-07-13T07:15:34;20.20;10.20
530;DHT22;251;48.704;9.210;2023-07-13T07:18:01;20.20;10.10
530;DHT22;251;48.704;9.210;2023-07-13T07:20:28;20.40;10.80
530;DHT22;251;48.704;9.210;2023-07-13T07:22:57;20.50;11.30
530;DHT22;251;48.704;9.210;2023-07-13T07:25:24;20.50;9.30
530;DHT22;251;48.704;9.210;2023-07-13T07:27:51;20.60;7.60
530;DHT22;251;48.704;9.210;2023-07-13T07:30:18;20.60;7.60
530;DHT22;251;48.704;9.210;2023-07-13T07:32:44;20.70;9.30
530;DHT22;251;48.704;9.210;2023-07-13T07:35:11;20.80;7.20
530;DHT22;251;48.704;9.210;2023-07-13T07:37:38;20.80;6.70
530;DHT22;251;48.704;9.210;2023-07-13T07:40:07;20.90;5.80
530;DHT22;251;48.704;9.210;2023-07-13T07:42:34;21.00;6.00
530;DHT22;251;48.704;9.210;2023-07-13T07:45:01;21.00;3.80
530;DHT22;251;48.704;9.210;2023-07-13T07:47:28;21.10;4.10
530;DHT22;251;48.704;9.210;2023-07-13T07:49:55;21.10;5.00
530;DHT22;251;48.704;9.210;2023-07-13T07:52:22;21.20;3.90
530;DHT22;251;48.704;9.210;2023-07-13T07:54:48;21.20;3.20
530;DHT22;251;48.704;9.210;2023-07-13T07:57:17;21.20;4.20
530;DHT22;251;48.704;9.210;2023-07-13T07:59:43;21.30;2.20
530;DHT22;251;48.704;9.210;2023-07-13T08:02:11;21.30;1.60
530;DHT22;251;48.704;9.210;2023-07-13T08:04:38;21.40;3.70
530;DHT22;251;48.704;9.210;2023-07-13T08:07:05;21.50;1.20
530;DHT22;251;48.704;9.210;2023-07-13T08:09:32;21.50;3.10
530;DHT22;251;48.704;9.210;2023-07-13T08:11:59;21.50;1.30
530;DHT22;251;48.704;9.210;2023-07-13T08:14:27;21.60;1.20
530;DHT22;251;48.704;9.210;2023-07-13T08:16:54;21.60;2.80
530;DHT22;251;48.704;9.210;2023-07-13T08:19:20;21.70;1.40
530;DHT22;251;48.704;9.210;2023-07-13T08:21:47;21.70;1.70
530;DHT22;251;48.704;9.210;2023-07-13T08:24:14;21.80;1.90
530;DHT22;251;48.704;9.210;2023-07-13T08:26:44;21.90;2.50
530;DHT22;251;48.704;9.210;2023-07-13T08:29:10;22.00;1.50
530;DHT22;251;48.704;9.210;2023-07-13T08:31:38;22.00;1.20
530;DHT22;251;48.704;9.210;2023-07-13T08:34:05;22.10;1.00
530;DHT22;251;48.704;9.210;2023-07-13T08:36:32;22.20;1.00
530;DHT22;251;48.704;9.210;2023-07-13T08:38:59;22.30;2.50
530;DHT22;251;48.704;9.210;2023-07-13T08:41:25;22.40;1.00
530;DHT22;251;48.704;9.210;2023-07-13T08:43:56;22.40;1.00
530;DHT22;251;48.704;9.210;2023-07-13T08:46:26;22.50;1.00
530;DHT22;251;48.704;9.210;2023-07-13T08:48:58;22.60;1.00
530;DHT22;251;48.704;9.210;2023-07-13T08:51:33;22.60;1.00
530;DHT22;251;48.704;9.210;2023-07-13T08:54:03;22.80;1.00
530;DHT22;251;48.704;9.210;2023-07-13T08:56:32;23.00;1.00
530;DHT22;251;48.704;9.210;2023-07-13T08:59:02;23.30;1.00
530;DHT22;251;48.704;9.210;2023-07-13T09:01:41;23.40;1.00
530;DHT22;251;48.704;9.210;2023-07-13T09:04:15;23.40;1.00
530;DHT22;251;48.704;9.210;2023-07-13T09:09:43;23.20;1.00
530;DHT22;251;48.704;9.210;2023-07-13T09:12:17;23.20;1.00
530;DHT22;251;48.704;9.210;2023-07-13T09:14:47;23.20;1.00
530;DHT22;251;48.704;9.210;2023-07-13T09:17:18;23.30;1.00
530;DHT22;251;48.704;9.210;2023-07-13T09:19:49;23.50;1.00
530;DHT22;251;48.704;9.210;2023-07-13T09:22:21;23.70;1.00
530;DHT22;251;48.704;9.210;2023-07-13T09:24:57;23.70;1.00
530;DHT22;251;48.704;9.210;2023-07-13T09:27:30;23.80;1.00
530;DHT22;251;48.704;9.210;2023-07-13T09:30:12;23.90;1.00
530;DHT22;251;48.704;9.210;2023-07-13T09:32:48;24.10;1.00
530;DHT22;251;48.704;9.210;2023-07-13T09:35:21;24.20;1.00
530;DHT22;251;48.704;9.210;2023-07-13T09:37:49;24.30;1.00
530;DHT22;251;48.704;9.210;2023-07-13T09:40:33;24.30;1.00
530;DHT22;251;48.704;9.210;2023-07-13T09:43:02;24.30;1.00
530;DHT22;251;48.704;9.210;2023-07-13T09:45:33;24.20;1.00
530;DHT22;251;48.704;9.210;2023-07-13T09:48:05;24.20;1.00
530;DHT22;251;48.704;9.210;2023-07-13T09:50:34;24.20;1.00
530;DHT22;251;48.704;9.210;2023-07-13T09:53:01;24.30;1.00
530;DHT22;251;48.704;9.210;2023-07-13T09:55:31;24.40;1.00
530;DHT22;251;48.704;9.210;2023-07-13T09:58:03;24.50;1.00
530;DHT22;251;48.704;9.210;2023-07-13T10:00:31;24.60;1.00
530;DHT22;251;48.704;9.210;2023-07-13T10:03:01;24.60;1.00
530;DHT22;251;48.704;9.210;2023-07-13T10:05:39;24.40;1.00
530;DHT22;251;48.704;9.210;2023-07-13T10:08:06;24.50;1.00
530;DHT22;251;48.704;9.210;2023-07-13T10:10:36;24.40;1.00
530;DHT22;251;48.704;9.210;2023-07-13T10:13:03;24.40;1.00
530;DHT22;251;48.704;9.210;2023-07-13T10:15:30;24.40;1.00
530;DHT22;251;48.704;9.210;2023-07-13T10:17:58;24.50;1.00
530;DHT22;251;48.704;9.210;2023-07-13T10:20:26;24.60;1.00
530;DHT22;251;48.704;9.210;2023-07-13T10:22:59;24.70;1.00
530;DHT22;251;48.704;9.210;2023-07-13T10:25:31;24.60;1.00
530;DHT22;251;48.704;9.210;2023-07-13T10:28:02;24.60;1.00
530;DHT22;251;48.704;9.210;2023-07-13T10:30:34;24.60;1.00
530;DHT22;251;48.704;9.210;2023-07-13T10:33:03;24.60;1.00
530;DHT22;251;48.704;9.210;2023-07-13T10:35:31;24.90;1.00
530;DHT22;251;48.704;9.210;2023-07-13T10:38:02;25.00;1.00
530;DHT22;251;48.704;9.210;2023-07-13T10:40:36;25.20;1.00
530;DHT22;251;48.704;9.210;2023-07-13T10:43:06;25.30;1.00
530;DHT22;251;48.704;9.210;2023-07-13T10:45:37;25.50;1.00
530;DHT22;251;48.704;9.210;2023-07-13T10:48:05;25.70;1.00
530;DHT22;251;48.704;9.210;2023-07-13T10:50:33;25.70;1.00
530;DHT22;251;48.704;9.210;2023-07-13T10:53:15;25.60;1.00
530;DHT22;251;48.704;9.210;2023-07-13T10:55:56;25.80;1.00
530;DHT22;251;48.704;9.210;2023-07-13T10:58:29;25.90;1.00
530;DHT22;251;48.704;9.210;2023-07-13T11:01:06;25.80;1.00
530;DHT22;251;48.704;9.210;2023-07-13T11:03:36;25.80;1.00
530;DHT22;251;48.704;9.210;2023-07-13T11:06:09;25.80;1.00
530;DHT22;251;48.704;9.210;2023-07-13T11:08:52;25.80;1.00
530;DHT22;251;48.704;9.210;2023-07-13T11:11:35;25.90;1.00
530;DHT22;251;48.704;9.210;2023-07-13T11:14:05;25.70;1.00
530;DHT22;251;48.704;9.210;2023-07-13T11:16:43;25.70;1.00
530;DHT22;251;48.704;9.210;2023-07-13T11:19:40;25.60;1.00
530;DHT22;251;48.704;9.210;2023-07-13T11:22:22;25.70;1.00
530;DHT22;251;48.704;9.210;2023-07-13T11:25:02;25.90;1.00
530;DHT22;251;48.704;9.210;2023-07-13T11:27:51;26.00;1.00
530;DHT22;251;48.704;9.210;2023-07-13T11:30:25;26.30;1.00
530;DHT22;251;48.704;9.210;2023-07-13T11:33:10;26.50;1.00
530;DHT22;251;48.704;9.210;2023-07-13T11:35:44;26.70;1.00
530;DHT22;251;48.704;9.210;2023-07-13T11:38:17;26.80;1.00
530;DHT22;251;48.704;9.210;2023-07-13T11:40:48;26.70;1.00
530;DHT22;251;48.704;9.210;2023-07-13T11:43:16;26.60;1.00
530;DHT22;251;48.704;9.210;2023-07-13T11:45:44;26.60;1.00
530;DHT22;251;48.704;9.210;2023-07-13T11:48:22;26.40;1.00
530;DHT22;251;48.704;9.210;2023-07-13T11:50:51;26.60;1.00
530;DHT22;251;48.704;9.210;2023-07-13T11:53:20;26.80;1.00
530;DHT22;251;48.704;9.210;2023-07-13T11:55:48;27.00;1.00
530;DHT22;251;48.704;9.210;2023-07-13T11:58:20;27.10;1.00
530;DHT22;251;48.704;9.210;2023-07-13T12:00:49;27.30;1.00
530;DHT22;251;48.704;9.210;2023-07-13T12:03:19;27.50;1.00
530;DHT22;251;48.704;9.210;2023-07-13T12:06:00;27.90;1.00
530;DHT22;251;48.704;9.210;2023-07-13T12:08:27;28.20;1.00
530;DHT22;251;48.704;9.210;2023-07-13T12:11:03;28.40;1.00
530;DHT22;251;48.704;9.210;2023-07-13T12:13:36;28.70;1.00
530;DHT22;251;48.704;9.210;2023-07-13T12:16:12;29.10;1.00
530;DHT22;251;48.704;9.210;2023-07-13T12:18:39;29.40;1.00
530;DHT22;251;48.704;9.210;2023-07-13T12:21:12;29.70;1.00
530;DHT22;251;48.704;9.210;2023-07-13T12:23:39;29.80;1.00
530;DHT22;251;48.704;9.210;2023-07-13T12:26:11;30.10;1.00
530;DHT22;251;48.704;9.210;2023-07-13T12:28:44;30.10;1.00
530;DHT22;251;48.704;9.210;2023-07-13T12:31:25;29.80;1.00
530;DHT22;251;48.704;9.210;2023-07-13T12:33:57;29.10;1.00
530;DHT22;251;48.704;9.210;2023-07-13T12:36:24;28.80;1.00
530;DHT22;251;48.704;9.210;2023-07-13T12:38:51;28.80;1.00
530;DHT22;251;48.704;9.210;2023-07-13T12:41:19;29.00;1.00
530;DHT22;251;48.704;9.210;2023-07-13T12:43:48;29.40;1.00
530;DHT22;251;48.704;9.210;2023-07-13T12:46:17;29.80;1.00
530;DHT22;251;48.704;9.210;2023-07-13T12:48:48;30.00;1.00
530;DHT22;251;48.704;9.210;2023-07-13T12:51:16;30.30;1.00
530;DHT22;251;48.704;9.210;2023-07-13T12:53:48;30.30;1.00
530;DHT22;251;48.704;9.210;2023-07-13T12:56:21;30.50;1.00
530;DHT22;251;48.704;9.210;2023-07-13T12:58:49;30.60;1.00
530;DHT22;251;48.704;9.210;2023-07-13T13:01:21;30.80;1.00
530;DHT22;251;48.704;9.210;2023-07-13T13:03:50;30.70;1.00
530;DHT22;251;48.704;9.210;2023-07-13T13:06:23;30.50;1.00
530;DHT22;251;48.704;9.210;2023-07-13T13:08:52;30.40;1.00
530;DHT22;251;48.704;9.210;2023-07-13T13:11:22;30.20;1.00
530;DHT22;251;48.704;9.210;2023-07-13T13:13:50;30.40;1.00
530;DHT22;251;48.704;9.210;2023-07-13T13:16:20;30.30;1.00
530;DHT22;251;48.704;9.210;2023-07-13T13:18:48;30.30;1.00
530;DHT22;251;48.704;9.210;2023-07-13T13:21:15;30.10;1.00
530;DHT22;251;48.704;9.210;2023-07-13T13:23:42;29.70;1.00
530;DHT22;251;48.704;9.210;2023-07-13T13:26:11;29.40;1.00
530;DHT22;251;48.704;9.210;2023-07-13T13:28:40;29.50;1.00
530;DHT22;251;48.704;9.210;2023-07-13T13:31:08;30.10;1.00
530;DHT22;251;48.704;9.210;2023-07-13T13:33:38;30.70;1.00
530;DHT22;251;48.704;9.210;2023-07-13T13:36:13;31.50;1.00
530;DHT22;251;48.704;9.210;2023-07-13T13:38:41;31.80;1.00
530;DHT22;251;48.704;9.210;2023-07-13T13:41:09;32.10;1.00
530;DHT22;251;48.704;9.210;2023-07-13T13:43:36;32.10;1.00
530;DHT22;251;48.704;9.210;2023-07-13T13:46:13;32.30;1.00
530;DHT22;251;48.704;9.210;2023-07-13T13:48:41;32.10;1.00
530;DHT22;251;48.704;9.210;2023-07-13T13:51:13;32.50;1.00
530;DHT22;251;48.704;9.210;2023-07-13T13:53:41;32.70;1.00
530;DHT22;251;48.704;9.210;2023-07-13T13:56:08;32.80;1.00
530;DHT22;251;48.704;9.210;2023-07-13T13:58:35;33.10;1.00
530;DHT22;251;48.704;9.210;2023-07-13T14:01:02;33.30;1.00
530;DHT22;251;48.704;9.210;2023-07-13T14:03:33;33.60;1.00
530;DHT22;251;48.704;9.210;2023-07-13T14:06:00;33.60;1.00
530;DHT22;251;48.704;9.210;2023-07-13T14:08:27;33.10;1.00
530;DHT22;251;48.704;9.210;2023-07-13T14:10:56;33.00;1.00
530;DHT22;251;48.704;9.210;2023-07-13T14:13:26;33.10;1.00
530;DHT22;251;48.704;9.210;2023-07-13T14:15:54;33.50;1.00
530;DHT22;251;48.704;9.210;2023-07-13T14:18:22;34.30;1.00
530;DHT22;251;48.704;9.210;2023-07-13T14:20:50;34.60;1.00
530;DHT22;251;48.704;9.210;2023-07-13T14:23:18;34.80;1.00
530;DHT22;251;48.704;9.210;2023-07-13T14:25:45;34.90;1.00
530;DHT22;251;48.704;9.210;2023-07-13T14:28:21;34.60;1.00
530;DHT22;251;48.704;9.210;2023-07-13T14:30:48;34.20;1.00
530;DHT22;251;48.704;9.210;2023-07-13T14:33:16;33.00;1.00
530;DHT22;251;48.704;9.210;2023-07-13T14:35:42;31.90;1.00
530;DHT22;251;48.704;9.210;2023-07-13T14:38:14;31.30;1.00
530;DHT22;251;48.704;9.210;2023-07-13T14:40:42;30.60;1.00
530;DHT22;251;48.704;9.210;2023-07-13T14:43:12;30.90;1.00
530;DHT22;251;48.704;9.210;2023-07-13T14:45:41;30.90;1.00
530;DHT22;251;48.704;9.210;2023-07-13T14:48:14;30.60;1.00
530;DHT22;251;48.704;9.210;2023-07-13T14:50:42;30.10;1.00
530;DHT22;251;48.704;9.210;2023-07-13T14:53:11;29.50;1.00
530;DHT22;251;48.704;9.210;2023-07-13T14:55:39;29.10;1.00
530;DHT22;251;48.704;9.210;2023-07-13T14:58:06;28.80;1.00
530;DHT22;251;48.704;9.210;2023-07-13T15:00:33;28.40;1.00
530;DHT22;251;48.704;9.210;2023-07-13T15:03:00;28.70;1.00
530;DHT22;251;48.704;9.210;2023-07-13T15:05:30;29.40;1.00
530;DHT22;251;48.704;9.210;2023-07-13T15:07:58;29.80;1.00
530;DHT22;251;48.704;9.210;2023-07-13T15:10:28;29.90;1.00
530;DHT22;251;48.704;9.210;2023-07-13T15:12:59;29.80;1.00
530;DHT22;251;48.704;9.210;2023-07-13T15:15:28;29.80;1.00
530;DHT22;251;48.704;9.210;2023-07-13T15:17:56;29.50;1.00
530;DHT22;251;48.704;9.210;2023-07-13T15:20:26;29.40;1.00
530;DHT22;251;48.704;9.210;2023-07-13T15:22:54;29.40;1.00
530;DHT22;251;48.704;9.210;2023-07-13T15:25:23;29.60;1.00
530;DHT22;251;48.704;9.210;2023-07-13T15:27:52;29.60;1.00
530;DHT22;251;48.704;9.210;2023-07-13T15:30:20;29.90;1.00
530;DHT22;251;48.704;9.210;2023-07-13T15:32:48;30.10;1.00
530;DHT22;251;48.704;9.210;2023-07-13T15:35:16;30.00;1.00
530;DHT22;251;48.704;9.210;2023-07-13T15:37:44;29.90;1.00
530;DHT22;251;48.704;9.210;2023-07-13T15:40:12;29.80;1.00
530;DHT22;251;48.704;9.210;2023-07-13T15:42:39;29.90;1.00
530;DHT22;251;48.704;9.210;2023-07-13T15:45:20;30.30;1.00
530;DHT22;251;48.704;9.210;2023-07-13T15:47:48;29.90;1.00
530;DHT22;251;48.704;9.210;2023-07-13T15:50:17;29.20;1.00
530;DHT22;251;48.704;9.210;2023-07-13T15:52:46;29.10;1.00
530;DHT22;251;48.704;9.210;2023-07-13T15:55:14;29.40;1.00
530;DHT22;251;48.704;9.210;2023-07-13T15:57:44;29.50;1.00
530;DHT22;251;48.704;9.210;2023-07-13T16:00:18;29.80;1.00
530;DHT22;251;48.704;9.210;2023-07-13T16:02:46;30.50;1.00
530;DHT22;251;48.704;9.210;2023-07-13T16:05:13;31.30;1.00
530;DHT22;251;48.704;9.210;2023-07-13T16:07:41;31.60;1.00
530;DHT22;251;48.704;9.210;2023-07-13T16:10:13;32.10;1.00
530;DHT22;251;48.704;9.210;2023-07-13T16:12:40;32.80;1.00
530;DHT22;251;48.704;9.210;2023-07-13T16:15:12;33.50;1.00
530;DHT22;251;48.704;9.210;2023-07-13T16:17:40;33.80;1.00
530;DHT22;251;48.704;9.210;2023-07-13T16:20:08;33.70;1.00
530;DHT22;251;48.704;9.210;2023-07-13T16:22:38;33.90;1.00
530;DHT22;251;48.704;9.210;2023-07-13T16:25:13;34.50;1.00
530;DHT22;251;48.704;9.210;2023-07-13T16:27:40;34.70;1.00
530;DHT22;251;48.704;9.210;2023-07-13T16:30:16;34.80;1.00
530;DHT22;251;48.704;9.210;2023-07-13T16:32:48;34.80;1.00
530;DHT22;251;48.704;9.210;2023-07-13T16:35:18;34.90;1.00
530;DHT22;251;48.704;9.210;2023-07-13T16:37:44;34.80;1.00
530;DHT22;251;48.704;9.210;2023-07-13T16:40:23;35.00;1.00
530;DHT22;251;48.704;9.210;2023-07-13T16:42:50;34.80;1.00
530;DHT22;251;48.704;9.210;2023-07-13T16:45:19;34.50;1.00
530;DHT22;251;48.704;9.210;2023-07-13T16:47:50;34.40;1.00
530;DHT22;251;48.704;9.210;2023-07-13T16:50:20;34.40;1.00
530;DHT22;251;48.704;9.210;2023-07-13T16:52:47;34.50;1.00
530;DHT22;251;48.704;9.210;2023-07-13T16:55:17;33.90;1.00
530;DHT22;251;48.704;9.210;2023-07-13T16:57:48;32.80;1.00
530;DHT22;251;48.704;9.210;2023-07-13T17:00:19;32.70;1.00
530;DHT22;251;48.704;9.210;2023-07-13T17:02:50;32.70;1.00